sensor_id;sensor_type;location;lat;lon;timestamp;temperature;humidity
66594;DHT22;53450;42.584;23.366;2023-06-22T00:01:16;17.02;70.02
66594;DHT22;53450;42.584;23.366;2023-06-22T00:03:42;16.90;70.94
66594;DHT22;53450;42.584;23.366;2023-06-22T00:06:08;16.83;71.40
66594;DHT22;53450;42.584;23.366;2023-06-22T00:08:33;16.76;71.56
66594;DHT22;53450;42.584;23.366;2023-06-22T00:10:59;16.90;71.19
66594;DHT22;53450;42.584;23.366;2023-06-22T00:13:25;17.00;70.75
66594;DHT22;53450;42.584;23.366;2023-06-22T00:15:50;16.96;70.96
66594;DHT22;53450;42.584;23.366;2023-06-22T00:18:16;17.02;71.23
66594;DHT22;53450;42.584;23.366;2023-06-22T00:20:41;17.02;71.03
66594;DHT22;53450;42.584;23.366;2023-06-22T00:23:07;17.04;70.91
66594;DHT22;53450;42.584;23.366;2023-06-22T00:25:42;17.09;70.46
66594;DHT22;53450;42.584;23.366;2023-06-22T00:28:08;17.14;70.37
66594;DHT22;53450;42.584;23.366;2023-06-22T00:30:34;16.97;70.98
66594;DHT22;53450;42.584;23.366;2023-06-22T00:33:00;16.93;70.75
66594;DHT22;53450;42.584;23.366;2023-06-22T00:35:26;16.99;71.33
66594;DHT22;53450;42.584;23.366;2023-06-22T00:37:59;17.00;71.06
66594;DHT22;53450;42.584;23.366;2023-06-22T00:40:31;16.96;71.84
66594;DHT22;53450;42.584;23.366;2023-06-22T00:42:57;16.86;71.87
66594;DHT22;53450;42.584;23.366;2023-06-22T00:45:23;16.77;72.01
66594;DHT22;53450;42.584;23.366;2023-06-22T00:47:53;16.73;71.77
66594;DHT22;53450;42.584;23.366;2023-06-22T00:50:24;16.72;71.79
66594;DHT22;53450;42.584;23.366;2023-06-22T00:52:57;16.66;72.88
66594;DHT22;53450;42.584;23.366;2023-06-22T00:55:25;16.56;72.73
66594;DHT22;53450;42.584;23.366;2023-06-22T00:57:53;16.63;73.37
66594;DHT22;53450;42.584;23.366;2023-06-22T01:00:25;16.62;73.08
66594;DHT22;53450;42.584;23.366;2023-06-22T01:02:53;16.59;72.92
66594;DHT22;53450;42.584;23.366;2023-06-22T01:05:20;16.56;73.06
66594;DHT22;53450;42.584;23.366;2023-06-22T01:10:51;16.55;72.82
66594;DHT22;53450;42.584;23.366;2023-06-22T01:16:11;16.52;71.98
66594;DHT22;53450;42.584;23.366;2023-06-22T01:18:41;16.75;71.61
66594;DHT22;53450;42.584;23.366;2023-06-22T01:21:14;16.79;71.08
66594;DHT22;53450;42.584;23.366;2023-06-22T01:27:00;16.93;70.04
66594;DHT22;53450;42.584;23.366;2023-06-22T01:29:32;17.09;69.96
66594;DHT22;53450;42.584;23.366;2023-06-22T01:31:59;17.13;70.09
66594;DHT22;53450;42.584;23.366;2023-06-22T01:34:28;17.13;69.78
66594;DHT22;53450;42.584;23.366;2023-06-22T01:36:55;17.16;69.73
66594;DHT22;53450;42.584;23.366;2023-06-22T01:39:21;17.17;70.97
66594;DHT22;53450;42.584;23.366;2023-06-22T01:41:47;17.10;71.11
66594;DHT22;53450;42.584;23.366;2023-06-22T01:44:15;17.02;71.88
66594;DHT22;53450;42.584;23.366;2023-06-22T01:46:41;16.90;71.49
66594;DHT22;53450;42.584;23.366;2023-06-22T01:49:07;16.89;72.16
66594;DHT22;53450;42.584;23.366;2023-06-22T01:51:33;16.79;72.61
66594;DHT22;53450;42.584;23.366;2023-06-22T01:53:59;16.71;72.79
66594;DHT22;53450;42.584;23.366;2023-06-22T01:56:25;16.59;73.12
66594;DHT22;53450;42.584;23.366;2023-06-22T01:59:12;16.56;73.66
66594;DHT22;53450;42.584;23.366;2023-06-22T02:01:47;16.53;73.91
66594;DHT22;53450;42.584;23.366;2023-06-22T02:04:23;16.55;74.03
66594;DHT22;53450;42.584;23.366;2023-06-22T02:06:56;16.52;74.17
66594;DHT22;53450;42.584;23.366;2023-06-22T02:09:25;16.51;74.21
66594;DHT22;53450;42.584;23.366;2023-06-22T02:11:55;16.55;74.79
66594;DHT22;53450;42.584;23.366;2023-06-22T02:14:23;16.53;74.88
66594;DHT22;53450;42.584;23.366;2023-06-22T02:16:51;16.48;74.47
66594;DHT22;53450;42.584;23.366;2023-06-22T02:19:16;16.41;74.56
66594;DHT22;53450;42.584;23.366;2023-06-22T02:21:44;16.34;74.92
66594;DHT22;53450;42.584;23.366;2023-06-22T02:24:12;16.42;74.99
66594;DHT22;53450;42.584;23.366;2023-06-22T02:26:38;16.49;75.13
66594;DHT22;53450;42.584;23.366;2023-06-22T02:29:08;16.36;75.43
66594;DHT22;53450;42.584;23.366;2023-06-22T02:31:33;16.29;75.15
66594;DHT22;53450;42.584;23.366;2023-06-22T02:33:59;16.28;75.58
66594;DHT22;53450;42.584;23.366;2023-06-22T02:36:25;16.41;75.63
66594;DHT22;53450;42.584;23.366;2023-06-22T02:38:53;16.47;75.38
66594;DHT22;53450;42.584;23.366;2023-06-22T02:41:19;16.55;75.30
66594;DHT22;53450;42.584;23.366;2023-06-22T02:43:48;16.51;75.65
66594;DHT22;53450;42.584;23.366;2023-06-22T02:46:20;16.26;76.01
66594;DHT22;53450;42.584;23.366;2023-06-22T02:48:46;16.38;76.50
66594;DHT22;53450;42.584;23.366;2023-06-22T02:51:11;16.49;76.45
66594;DHT22;53450;42.584;23.366;2023-06-22T02:53:37;16.47;76.11
66594;DHT22;53450;42.584;23.366;2023-06-22T02:56:03;16.49;75.93
66594;DHT22;53450;42.584;23.366;2023-06-22T02:58:35;16.53;76.17
66594;DHT22;53450;42.584;23.366;2023-06-22T03:01:08;16.53;76.22
66594;DHT22;53450;42.584;23.366;2023-06-22T03:03:36;16.62;76.01
66594;DHT22;53450;42.584;23.366;2023-06-22T03:06:02;16.49;76.29
66594;DHT22;53450;42.584;23.366;2023-06-22T03:08:28;16.35;76.49
66594;DHT22;53450;42.584;23.366;2023-06-22T03:10:55;16.28;76.59
66594;DHT22;53450;42.584;23.366;2023-06-22T03:13:21;16.44;76.47
66594;DHT22;53450;42.584;23.366;2023-06-22T03:15:47;16.59;76.18
66594;DHT22;53450;42.584;23.366;2023-06-22T03:18:12;16.58;75.69
66594;DHT22;53450;42.584;23.366;2023-06-22T03:21:03;16.66;75.50
66594;DHT22;53450;42.584;23.366;2023-06-22T03:23:53;16.56;75.87
66594;DHT22;53450;42.584;23.366;2023-06-22T03:26:19;16.61;75.49
66594;DHT22;53450;42.584;23.366;2023-06-22T03:28:46;16.61;75.22
66594;DHT22;53450;42.584;23.366;2023-06-22T03:31:12;16.72;75.24
66594;DHT22;53450;42.584;23.366;2023-06-22T03:33:39;16.76;74.90
66594;DHT22;53450;42.584;23.366;2023-06-22T03:36:05;16.84;74.64
66594;DHT22;53450;42.584;23.366;2023-06-22T03:38:31;16.89;75.16
66594;DHT22;53450;42.584;23.366;2023-06-22T03:40:57;16.79;75.06
66594;DHT22;53450;42.584;23.366;2023-06-22T03:43:23;16.89;75.27
66594;DHT22;53450;42.584;23.366;2023-06-22T03:45:49;16.99;75.69
66594;DHT22;53450;42.584;23.366;2023-06-22T03:48:15;17.13;76.31
66594;DHT22;53450;42.584;23.366;2023-06-22T03:50:41;17.19;76.61
66594;DHT22;53450;42.584;23.366;2023-06-22T03:53:06;17.31;76.65
66594;DHT22;53450;42.584;23.366;2023-06-22T03:55:34;17.42;77.00
66594;DHT22;53450;42.584;23.366;2023-06-22T03:58:02;17.51;76.78
66594;DHT22;53450;42.584;23.366;2023-06-22T04:00:31;17.64;76.49
66594;DHT22;53450;42.584;23.366;2023-06-22T04:02:57;17.79;76.55
66594;DHT22;53450;42.584;23.366;2023-06-22T04:05:22;17.88;75.56
66594;DHT22;53450;42.584;23.366;2023-06-22T04:07:49;17.98;75.48
66594;DHT22;53450;42.584;23.366;2023-06-22T04:10:15;17.89;76.71
66594;DHT22;53450;42.584;23.366;2023-06-22T04:12:41;18.03;75.71
66594;DHT22;53450;42.584;23.366;2023-06-22T04:15:07;18.20;75.25
66594;DHT22;53450;42.584;23.366;2023-06-22T04:17:32;18.63;74.63
66594;DHT22;53450;42.584;23.366;2023-06-22T04:19:58;19.42;71.88
66594;DHT22;53450;42.584;23.366;2023-06-22T04:22:23;20.51;69.09
66594;DHT22;53450;42.584;23.366;2023-06-22T04:24:49;21.83;65.15
66594;DHT22;53450;42.584;23.366;2023-06-22T04:27:17;22.50;61.97
66594;DHT22;53450;42.584;23.366;2023-06-22T04:29:44;22.41;62.50
66594;DHT22;53450;42.584;23.366;2023-06-22T04:32:17;21.96;63.29
66594;DHT22;53450;42.584;23.366;2023-06-22T04:34:43;21.26;65.54
66594;DHT22;53450;42.584;23.366;2023-06-22T04:37:09;20.63;67.38
66594;DHT22;53450;42.584;23.366;2023-06-22T04:39:34;20.17;69.68
66594;DHT22;53450;42.584;23.366;2023-06-22T04:42:01;19.66;71.33
66594;DHT22;53450;42.584;23.366;2023-06-22T04:44:27;19.67;72.04
66594;DHT22;53450;42.584;23.366;2023-06-22T04:46:58;19.81;71.94
66594;DHT22;53450;42.584;23.366;2023-06-22T04:49:29;20.04;72.27
66594;DHT22;53450;42.584;23.366;2023-06-22T04:52:06;20.14;71.39
66594;DHT22;53450;42.584;23.366;2023-06-22T04:54:32;20.17;71.56
66594;DHT22;53450;42.584;23.366;2023-06-22T04:57:02;20.34;71.53
66594;DHT22;53450;42.584;23.366;2023-06-22T04:59:29;20.25;72.70
66594;DHT22;53450;42.584;23.366;2023-06-22T05:02:00;20.36;71.85
66594;DHT22;53450;42.584;23.366;2023-06-22T05:04:27;20.62;70.84
66594;DHT22;53450;42.584;23.366;2023-06-22T05:07:04;20.73;70.53
66594;DHT22;53450;42.584;23.366;2023-06-22T05:09:30;20.79;70.41
66594;DHT22;53450;42.584;23.366;2023-06-22T05:11:56;20.87;71.40
66594;DHT22;53450;42.584;23.366;2023-06-22T05:14:22;21.07;72.08
66594;DHT22;53450;42.584;23.366;2023-06-22T05:16:48;21.28;70.82
66594;DHT22;53450;42.584;23.366;2023-06-22T05:19:14;21.40;69.77
66594;DHT22;53450;42.584;23.366;2023-06-22T05:21:40;21.52;69.47
66594;DHT22;53450;42.584;23.366;2023-06-22T05:24:05;21.63;65.75
66594;DHT22;53450;42.584;23.366;2023-06-22T05:26:33;21.69;68.49
66594;DHT22;53450;42.584;23.366;2023-06-22T05:29:00;21.77;65.23
66594;DHT22;53450;42.584;23.366;2023-06-22T05:31:29;21.79;65.49
66594;DHT22;53450;42.584;23.366;2023-06-22T05:33:55;21.72;67.65
66594;DHT22;53450;42.584;23.366;2023-06-22T05:36:21;21.59;65.21
66594;DHT22;53450;42.584;23.366;2023-06-22T05:38:51;21.63;68.04
66594;DHT22;53450;42.584;23.366;2023-06-22T05:41:17;21.59;67.33
66594;DHT22;53450;42.584;23.366;2023-06-22T05:43:43;21.58;68.33
66594;DHT22;53450;42.584;23.366;2023-06-22T05:46:09;21.40;67.84
66594;DHT22;53450;42.584;23.366;2023-06-22T05:48:34;21.57;67.39
66594;DHT22;53450;42.584;23.366;2023-06-22T05:51:00;21.42;67.66
66594;DHT22;53450;42.584;23.366;2023-06-22T05:53:26;21.44;67.74
66594;DHT22;53450;42.584;23.366;2023-06-22T05:55:51;21.66;67.19
66594;DHT22;53450;42.584;23.366;2023-06-22T05:58:17;21.57;65.80
66594;DHT22;53450;42.584;23.366;2023-06-22T06:00:43;21.55;67.30
66594;DHT22;53450;42.584;23.366;2023-06-22T06:03:09;21.52;67.75
66594;DHT22;53450;42.584;23.366;2023-06-22T06:05:36;21.51;68.31
66594;DHT22;53450;42.584;23.366;2023-06-22T06:08:03;21.66;67.15
66594;DHT22;53450;42.584;23.366;2023-06-22T06:10:33;21.50;68.04
66594;DHT22;53450;42.584;23.366;2023-06-22T06:12:59;21.35;68.68
66594;DHT22;53450;42.584;23.366;2023-06-22T06:15:28;21.30;69.30
66594;DHT22;53450;42.584;23.366;2023-06-22T06:17:53;21.63;68.46
66594;DHT22;53450;42.584;23.366;2023-06-22T06:20:44;21.77;68.48
66594;DHT22;53450;42.584;23.366;2023-06-22T06:23:35;21.83;67.53
66594;DHT22;53450;42.584;23.366;2023-06-22T06:26:26;21.96;67.65
66594;DHT22;53450;42.584;23.366;2023-06-22T06:29:03;22.05;66.88
66594;DHT22;53450;42.584;23.366;2023-06-22T06:31:29;22.24;67.13
66594;DHT22;53450;42.584;23.366;2023-06-22T06:33:55;22.33;66.19
66594;DHT22;53450;42.584;23.366;2023-06-22T06:36:21;22.30;65.88
66594;DHT22;53450;42.584;23.366;2023-06-22T06:38:47;22.36;65.54
66594;DHT22;53450;42.584;23.366;2023-06-22T06:41:14;22.65;65.09
66594;DHT22;53450;42.584;23.366;2023-06-22T06:43:40;22.78;63.21
66594;DHT22;53450;42.584;23.366;2023-06-22T06:46:08;23.05;63.69
66594;DHT22;53450;42.584;23.366;2023-06-22T06:48:33;23.14;63.17
66594;DHT22;53450;42.584;23.366;2023-06-22T06:50:59;23.38;63.95
66594;DHT22;53450;42.584;23.366;2023-06-22T06:53:25;23.70;62.07
66594;DHT22;53450;42.584;23.366;2023-06-22T06:55:50;23.88;61.79
66594;DHT22;53450;42.584;23.366;2023-06-22T06:58:16;24.03;63.56
66594;DHT22;53450;42.584;23.366;2023-06-22T07:00:42;24.07;61.69
66594;DHT22;53450;42.584;23.366;2023-06-22T07:03:09;24.25;60.35
66594;DHT22;53450;42.584;23.366;2023-06-22T07:05:34;24.20;59.21
66594;DHT22;53450;42.584;23.366;2023-06-22T07:08:01;24.29;59.52
66594;DHT22;53450;42.584;23.366;2023-06-22T07:10:26;24.31;57.51
66594;DHT22;53450;42.584;23.366;2023-06-22T07:12:52;24.17;58.74
66594;DHT22;53450;42.584;23.366;2023-06-22T07:15:18;24.00;59.08
66594;DHT22;53450;42.584;23.366;2023-06-22T07:17:43;23.94;59.96
66594;DHT22;53450;42.584;23.366;2023-06-22T07:20:09;23.88;61.69
66594;DHT22;53450;42.584;23.366;2023-06-22T07:22:39;23.86;61.59
66594;DHT22;53450;42.584;23.366;2023-06-22T07:25:06;23.94;61.33
66594;DHT22;53450;42.584;23.366;2023-06-22T07:27:38;23.96;62.15
66594;DHT22;53450;42.584;23.366;2023-06-22T07:30:08;24.05;62.01
66594;DHT22;53450;42.584;23.366;2023-06-22T07:32:34;24.18;60.18
66594;DHT22;53450;42.584;23.366;2023-06-22T07:35:00;24.03;58.88
66594;DHT22;53450;42.584;23.366;2023-06-22T07:37:27;24.15;61.52
66594;DHT22;53450;42.584;23.366;2023-06-22T07:39:53;23.93;61.34
66594;DHT22;53450;42.584;23.366;2023-06-22T07:42:24;24.08;60.10
66594;DHT22;53450;42.584;23.366;2023-06-22T07:44:50;24.24;61.17
66594;DHT22;53450;42.584;23.366;2023-06-22T07:47:16;24.44;60.91
66594;DHT22;53450;42.584;23.366;2023-06-22T07:49:45;24.63;60.15
66594;DHT22;53450;42.584;23.366;2023-06-22T07:52:11;24.59;59.41
66594;DHT22;53450;42.584;23.366;2023-06-22T07:55:02;24.76;59.94
66594;DHT22;53450;42.584;23.366;2023-06-22T07:57:28;24.76;56.79
66594;DHT22;53450;42.584;23.366;2023-06-22T08:00:05;24.56;56.17
66594;DHT22;53450;42.584;23.366;2023-06-22T08:02:45;24.75;58.29
66594;DHT22;53450;42.584;23.366;2023-06-22T08:05:12;24.86;57.83
66594;DHT22;53450;42.584;23.366;2023-06-22T08:07:38;25.03;58.08
66594;DHT22;53450;42.584;23.366;2023-06-22T08:10:05;25.28;57.37
66594;DHT22;53450;42.584;23.366;2023-06-22T08:12:31;25.43;56.92
66594;DHT22;53450;42.584;23.366;2023-06-22T08:14:57;25.50;56.72
66594;DHT22;53450;42.584;23.366;2023-06-22T08:17:24;25.62;56.99
66594;DHT22;53450;42.584;23.366;2023-06-22T08:19:50;25.64;57.59
66594;DHT22;53450;42.584;23.366;2023-06-22T08:22:16;25.44;54.90
66594;DHT22;53450;42.584;23.366;2023-06-22T08:24:42;25.37;56.12
66594;DHT22;53450;42.584;23.366;2023-06-22T08:27:08;25.72;57.23
66594;DHT22;53450;42.584;23.366;2023-06-22T08:29:41;25.85;55.88
66594;DHT22;53450;42.584;23.366;2023-06-22T08:32:11;25.89;55.03
66594;DHT22;53450;42.584;23.366;2023-06-22T08:35:02;26.15;55.90
66594;DHT22;53450;42.584;23.366;2023-06-22T08:37:53;26.19;55.98
66594;DHT22;53450;42.584;23.366;2023-06-22T08:40:21;26.28;55.85
66594;DHT22;53450;42.584;23.366;2023-06-22T08:42:47;26.23;56.64
66594;DHT22;53450;42.584;23.366;2023-06-22T08:45:13;26.12;54.95
66594;DHT22;53450;42.584;23.366;2023-06-22T08:47:40;25.92;54.98
66594;DHT22;53450;42.584;23.366;2023-06-22T08:50:10;26.03;56.35
66594;DHT22;53450;42.584;23.366;2023-06-22T08:52:36;26.18;55.87
66594;DHT22;53450;42.584;23.366;2023-06-22T08:55:02;25.92;55.25
66594;DHT22;53450;42.584;23.366;2023-06-22T08:57:28;25.77;54.91
66594;DHT22;53450;42.584;23.366;2023-06-22T09:00:20;25.67;54.93
66594;DHT22;53450;42.584;23.366;2023-06-22T09:02:47;25.67;54.37
66594;DHT22;53450;42.584;23.366;2023-06-22T09:05:13;25.35;54.50
66594;DHT22;53450;42.584;23.366;2023-06-22T09:07:39;25.52;56.32
66594;DHT22;53450;42.584;23.366;2023-06-22T09:10:06;25.35;57.91
66594;DHT22;53450;42.584;23.366;2023-06-22T09:12:32;25.54;56.03
66594;DHT22;53450;42.584;23.366;2023-06-22T09:14:59;25.79;55.00
66594;DHT22;53450;42.584;23.366;2023-06-22T09:17:26;25.70;55.56
66594;DHT22;53450;42.584;23.366;2023-06-22T09:19:52;25.78;58.53
66594;DHT22;53450;42.584;23.366;2023-06-22T09:22:18;25.85;57.39
66594;DHT22;53450;42.584;23.366;2023-06-22T09:24:43;25.70;55.32
66594;DHT22;53450;42.584;23.366;2023-06-22T09:27:09;25.89;55.20
66594;DHT22;53450;42.584;23.366;2023-06-22T09:29:35;26.09;55.29
66594;DHT22;53450;42.584;23.366;2023-06-22T09:32:01;26.05;54.99
66594;DHT22;53450;42.584;23.366;2023-06-22T09:34:27;25.95;54.77
66594;DHT22;53450;42.584;23.366;2023-06-22T09:36:52;26.28;54.76
66594;DHT22;53450;42.584;23.366;2023-06-22T09:39:18;26.12;54.04
66594;DHT22;53450;42.584;23.366;2023-06-22T09:41:44;26.36;51.60
66594;DHT22;53450;42.584;23.366;2023-06-22T09:44:10;26.30;51.41
66594;DHT22;53450;42.584;23.366;2023-06-22T09:46:35;26.33;50.63
66594;DHT22;53450;42.584;23.366;2023-06-22T09:49:01;26.33;51.23
66594;DHT22;53450;42.584;23.366;2023-06-22T09:51:26;26.26;51.97
66594;DHT22;53450;42.584;23.366;2023-06-22T09:53:52;26.40;51.19
66594;DHT22;53450;42.584;23.366;2023-06-22T09:56:46;26.65;48.09
66594;DHT22;53450;42.584;23.366;2023-06-22T09:59:11;26.57;46.33
66594;DHT22;53450;42.584;23.366;2023-06-22T10:01:37;26.70;48.00
66594;DHT22;53450;42.584;23.366;2023-06-22T10:04:30;26.97;48.67
66594;DHT22;53450;42.584;23.366;2023-06-22T10:07:22;27.05;47.43
66594;DHT22;53450;42.584;23.366;2023-06-22T10:09:47;27.14;46.13
66594;DHT22;53450;42.584;23.366;2023-06-22T10:12:13;27.16;46.95
66594;DHT22;53450;42.584;23.366;2023-06-22T10:14:39;26.99;45.66
66594;DHT22;53450;42.584;23.366;2023-06-22T10:17:04;26.95;45.36
66594;DHT22;53450;42.584;23.366;2023-06-22T10:19:33;27.21;46.72
66594;DHT22;53450;42.584;23.366;2023-06-22T10:21:58;27.38;47.57
66594;DHT22;53450;42.584;23.366;2023-06-22T10:24:24;27.46;45.04
66594;DHT22;53450;42.584;23.366;2023-06-22T10:26:49;27.42;44.59
66594;DHT22;53450;42.584;23.366;2023-06-22T10:29:15;27.46;43.09
66594;DHT22;53450;42.584;23.366;2023-06-22T10:31:41;27.48;44.74
66594;DHT22;53450;42.584;23.366;2023-06-22T10:34:27;27.59;44.57
66594;DHT22;53450;42.584;23.366;2023-06-22T10:37:00;27.53;42.49
66594;DHT22;53450;42.584;23.366;2023-06-22T10:39:26;27.57;42.72
66594;DHT22;53450;42.584;23.366;2023-06-22T10:42:03;27.60;43.71
66594;DHT22;53450;42.584;23.366;2023-06-22T10:44:28;27.50;42.33
66594;DHT22;53450;42.584;23.366;2023-06-22T10:46:54;27.76;42.63
66594;DHT22;53450;42.584;23.366;2023-06-22T10:49:20;27.86;42.47
66594;DHT22;53450;42.584;23.366;2023-06-22T10:52:11;28.04;43.31
66594;DHT22;53450;42.584;23.366;2023-06-22T10:55:05;27.80;42.40
66594;DHT22;53450;42.584;23.366;2023-06-22T10:57:31;27.84;46.42
66594;DHT22;53450;42.584;23.366;2023-06-22T10:59:57;27.94;44.24
66594;DHT22;53450;42.584;23.366;2023-06-22T11:02:23;27.89;43.00
66594;DHT22;53450;42.584;23.366;2023-06-22T11:04:49;27.90;43.33
66594;DHT22;53450;42.584;23.366;2023-06-22T11:07:15;28.00;43.25
66594;DHT22;53450;42.584;23.366;2023-06-22T11:09:43;28.06;42.55
66594;DHT22;53450;42.584;23.366;2023-06-22T11:12:09;28.07;43.27
66594;DHT22;53450;42.584;23.366;2023-06-22T11:14:35;28.37;44.64
66594;DHT22;53450;42.584;23.366;2023-06-22T11:17:01;28.28;42.68
66594;DHT22;53450;42.584;23.366;2023-06-22T11:19:27;28.22;43.15
66594;DHT22;53450;42.584;23.366;2023-06-22T11:21:53;28.27;43.46
66594;DHT22;53450;42.584;23.366;2023-06-22T11:24:22;28.21;44.58
66594;DHT22;53450;42.584;23.366;2023-06-22T11:26:48;28.08;43.94
66594;DHT22;53450;42.584;23.366;2023-06-22T11:29:16;28.27;43.26
66594;DHT22;53450;42.584;23.366;2023-06-22T11:31:44;28.59;43.34
66594;DHT22;53450;42.584;23.366;2023-06-22T11:34:10;28.58;43.48
66594;DHT22;53450;42.584;23.366;2023-06-22T11:37:01;28.64;43.95
66594;DHT22;53450;42.584;23.366;2023-06-22T11:39:52;28.91;41.62
66594;DHT22;53450;42.584;23.366;2023-06-22T11:42:20;29.27;43.96
66594;DHT22;53450;42.584;23.366;2023-06-22T11:44:46;29.37;41.85
66594;DHT22;53450;42.584;23.366;2023-06-22T11:47:11;29.04;40.28
66594;DHT22;53450;42.584;23.366;2023-06-22T11:49:37;28.82;40.85
66594;DHT22;53450;42.584;23.366;2023-06-22T11:52:03;28.72;41.57
66594;DHT22;53450;42.584;23.366;2023-06-22T11:54:31;29.02;41.10
66594;DHT22;53450;42.584;23.366;2023-06-22T11:57:02;28.99;40.85
66594;DHT22;53450;42.584;23.366;2023-06-22T11:59:51;28.65;43.22
66594;DHT22;53450;42.584;23.366;2023-06-22T12:02:17;28.95;41.15
66594;DHT22;53450;42.584;23.366;2023-06-22T12:04:43;29.10;40.13
66594;DHT22;53450;42.584;23.366;2023-06-22T12:07:09;29.19;39.94
66594;DHT22;53450;42.584;23.366;2023-06-22T12:09:37;29.14;40.05
66594;DHT22;53450;42.584;23.366;2023-06-22T12:12:30;28.89;42.47
66594;DHT22;53450;42.584;23.366;2023-06-22T12:14:58;29.12;42.88
66594;DHT22;53450;42.584;23.366;2023-06-22T12:17:28;29.43;40.07
66594;DHT22;53450;42.584;23.366;2023-06-22T12:19:54;29.26;39.55
66594;DHT22;53450;42.584;23.366;2023-06-22T12:22:20;29.09;40.01
66594;DHT22;53450;42.584;23.366;2023-06-22T12:24:48;28.72;40.83
66594;DHT22;53450;42.584;23.366;2023-06-22T12:27:19;28.59;42.63
66594;DHT22;53450;42.584;23.366;2023-06-22T12:36:39;27.86;43.39
66594;DHT22;53450;42.584;23.366;2023-06-22T12:39:12;27.32;46.24
66594;DHT22;53450;42.584;23.366;2023-06-22T12:41:38;26.60;51.30
66594;DHT22;53450;42.584;23.366;2023-06-22T12:44:06;25.64;54.15
66594;DHT22;53450;42.584;23.366;2023-06-22T12:47:10;25.20;64.49
66594;DHT22;53450;42.584;23.366;2023-06-22T12:50:01;24.82;67.49
66594;DHT22;53450;42.584;23.366;2023-06-22T12:52:30;24.03;70.97
66594;DHT22;53450;42.584;23.366;2023-06-22T12:54:57;23.50;71.62
66594;DHT22;53450;42.584;23.366;2023-06-22T13:07:48;22.39;76.66
66594;DHT22;53450;42.584;23.366;2023-06-22T13:38:38;22.21;78.15
66594;DHT22;53450;42.584;23.366;2023-06-22T13:41:09;22.28;78.11
66594;DHT22;53450;42.584;23.366;2023-06-22T13:43:35;22.33;77.27
66594;DHT22;53450;42.584;23.366;2023-06-22T14:08:12;22.36;78.98
66594;DHT22;53450;42.584;23.366;2023-06-22T14:10:51;22.09;80.66
66594;DHT22;53450;42.584;23.366;2023-06-22T14:13:23;21.82;81.77
66594;DHT22;53450;42.584;23.366;2023-06-22T14:15:52;21.58;81.57
66594;DHT22;53450;42.584;23.366;2023-06-22T14:18:33;21.61;81.44
66594;DHT22;53450;42.584;23.366;2023-06-22T14:28:18;21.62;81.61
66594;DHT22;53450;42.584;23.366;2023-06-22T14:31:30;21.54;81.35
66594;DHT22;53450;42.584;23.366;2023-06-22T14:36:55;21.26;83.12
66594;DHT22;53450;42.584;23.366;2023-06-22T14:39:21;21.06;83.76
66594;DHT22;53450;42.584;23.366;2023-06-22T14:42:31;21.14;83.88
66594;DHT22;53450;42.584;23.366;2023-06-22T14:45:00;21.34;83.97
66594;DHT22;53450;42.584;23.366;2023-06-22T14:47:25;21.47;82.54
66594;DHT22;53450;42.584;23.366;2023-06-22T14:49:57;21.54;82.74
66594;DHT22;53450;42.584;23.366;2023-06-22T14:52:23;21.61;82.45
66594;DHT22;53450;42.584;23.366;2023-06-22T14:58:02;21.68;82.21
66594;DHT22;53450;42.584;23.366;2023-06-22T15:00:37;21.75;82.77
66594;DHT22;53450;42.584;23.366;2023-06-22T15:03:15;21.81;82.22
66594;DHT22;53450;42.584;23.366;2023-06-22T15:08:43;22.14;80.04
66594;DHT22;53450;42.584;23.366;2023-06-22T15:11:12;22.20;79.80
66594;DHT22;53450;42.584;23.366;2023-06-22T15:13:39;22.23;81.39
66594;DHT22;53450;42.584;23.366;2023-06-22T15:16:09;22.09;81.75
66594;DHT22;53450;42.584;23.366;2023-06-22T15:18:35;22.06;82.57
66594;DHT22;53450;42.584;23.366;2023-06-22T15:21:02;22.12;81.91
66594;DHT22;53450;42.584;23.366;2023-06-22T15:23:29;21.93;82.30
66594;DHT22;53450;42.584;23.366;2023-06-22T15:26:19;21.82;82.56
66594;DHT22;53450;42.584;23.366;2023-06-22T15:29:10;21.86;81.97
66594;DHT22;53450;42.584;23.366;2023-06-22T15:31:36;22.10;81.67
66594;DHT22;53450;42.584;23.366;2023-06-22T15:34:01;22.26;81.79
66594;DHT22;53450;42.584;23.366;2023-06-22T15:36:53;22.65;80.41
66594;DHT22;53450;42.584;23.366;2023-06-22T15:41:56;23.25;78.29
66594;DHT22;53450;42.584;23.366;2023-06-22T15:55:47;24.10;76.15
66594;DHT22;53450;42.584;23.366;2023-06-22T16:13:19;23.52;80.28
66594;DHT22;53450;42.584;23.366;2023-06-22T16:16:44;23.47;80.54
66594;DHT22;53450;42.584;23.366;2023-06-22T16:24:13;23.07;79.94
66594;DHT22;53450;42.584;23.366;2023-06-22T16:27:17;23.15;77.90
66594;DHT22;53450;42.584;23.366;2023-06-22T16:29:52;22.98;79.37
66594;DHT22;53450;42.584;23.366;2023-06-22T16:32:52;23.15;79.73
66594;DHT22;53450;42.584;23.366;2023-06-22T16:42:46;23.08;79.32
66594;DHT22;53450;42.584;23.366;2023-06-22T16:45:37;23.11;77.76
66594;DHT22;53450;42.584;23.366;2023-06-22T16:48:21;23.16;78.57
66594;DHT22;53450;42.584;23.366;2023-06-22T16:51:12;23.15;77.17
66594;DHT22;53450;42.584;23.366;2023-06-22T16:53:41;23.11;79.17
66594;DHT22;53450;42.584;23.366;2023-06-22T16:56:07;23.12;79.19
66594;DHT22;53450;42.584;23.366;2023-06-22T16:58:34;23.04;79.32
66594;DHT22;53450;42.584;23.366;2023-06-22T17:01:01;23.04;80.07
66594;DHT22;53450;42.584;23.366;2023-06-22T17:03:30;23.14;79.22
66594;DHT22;53450;42.584;23.366;2023-06-22T17:05:58;23.16;79.20
66594;DHT22;53450;42.584;23.366;2023-06-22T17:08:28;22.92;77.66
66594;DHT22;53450;42.584;23.366;2023-06-22T17:17:56;22.70;78.55
66594;DHT22;53450;42.584;23.366;2023-06-22T17:20:52;22.72;79.18
66594;DHT22;53450;42.584;23.366;2023-06-22T17:23:18;22.77;79.30
66594;DHT22;53450;42.584;23.366;2023-06-22T17:25:46;22.68;79.91
66594;DHT22;53450;42.584;23.366;2023-06-22T17:28:12;22.53;79.17
66594;DHT22;53450;42.584;23.366;2023-06-22T17:30:41;22.35;78.92
66594;DHT22;53450;42.584;23.366;2023-06-22T17:34:19;21.93;80.13
66594;DHT22;53450;42.584;23.366;2023-06-22T17:37:14;21.77;80.60
66594;DHT22;53450;42.584;23.366;2023-06-22T17:39:52;21.69;81.11
66594;DHT22;53450;42.584;23.366;2023-06-22T17:42:35;21.58;81.48
66594;DHT22;53450;42.584;23.366;2023-06-22T17:45:23;21.50;81.41
66594;DHT22;53450;42.584;23.366;2023-06-22T17:47:59;21.42;80.90
66594;DHT22;53450;42.584;23.366;2023-06-22T17:50:34;21.45;81.41
66594;DHT22;53450;42.584;23.366;2023-06-22T17:53:47;21.41;80.74
66594;DHT22;53450;42.584;23.366;2023-06-22T17:56:22;21.41;80.47